Time;durP1;ratioP1;P1;durP2;ratioP2;P2;SDS_P1;SDS_P2;PMS_P1;PMS_P2;Temp;Humidity;BMP_temperature;BMP_pressure;BME280_temperature;BME280_humidity;BME280_pressure;Samples;Min_cycle;Max_cycle;Signal;HPM_P1;HPM_P2
2021/09/29 00:01:15;;;;;;;10.50;8.90;;;10.60;99.90;;;;;;4990021;28;20471;-81
2021/09/29 00:03:41;;;;;;;12.30;9.47;;;10.50;99.90;;;;;;4989823;28;20428;-82
2021/09/29 00:06:07;;;;;;;11.25;9.10;;;10.50;99.90;;;;;;4989751;28;20431;-84
2021/09/29 00:08:32;;;;;;;13.63;9.30;;;10.50;99.90;;;;;;4989804;28;20455;-85
2021/09/29 00:10:58;;;;;;;13.17;9.30;;;10.50;99.90;;;;;;4989597;28;20373;-79
2021/09/29 00:13:25;;;;;;;10.57;8.55;;;10.50;99.90;;;;;;4989922;28;20816;-81
2021/09/29 00:15:53;;;;;;;13.45;8.85;;;10.50;99.90;;;;;;4972000;28;20411;-88
2021/09/29 00:18:19;;;;;;;13.23;9.50;;;10.50;99.90;;;;;;4989394;28;20435;-83
2021/09/29 00:20:45;;;;;;;12.75;8.80;;;10.50;99.90;;;;;;4990299;28;20385;-85
2021/09/29 00:23:10;;;;;;;12.88;9.63;;;10.50;99.90;;;;;;4989994;28;20384;-80
2021/09/29 00:25:36;;;;;;;14.10;10.10;;;10.50;99.90;;;;;;4990628;28;20389;-80
2021/09/29 00:28:02;;;;;;;14.15;8.88;;;10.50;99.90;;;;;;4973833;28;20405;-85
2021/09/29 00:30:31;;;;;;;20.52;10.85;;;10.40;99.90;;;;;;4993796;28;20372;-83
2021/09/29 00:33:01;;;;;;;12.50;9.95;;;10.40;99.90;;;;;;4976654;28;20399;-82
2021/09/29 00:35:27;;;;;;;10.88;9.77;;;10.40;99.90;;;;;;4976416;28;20439;-81
2021/09/29 00:37:53;;;;;;;13.52;10.23;;;10.40;99.90;;;;;;4993825;28;20816;-84
2021/09/29 00:40:19;;;;;;;19.60;10.80;;;10.40;99.90;;;;;;4994520;28;20393;-83
2021/09/29 00:42:44;;;;;;;13.77;10.23;;;10.50;99.90;;;;;;4994062;28;20750;-84
2021/09/29 00:45:10;;;;;;;20.37;10.43;;;10.40;99.90;;;;;;4995342;28;20388;-86
2021/09/29 00:47:36;;;;;;;12.93;9.77;;;10.40;99.90;;;;;;4995161;28;20946;-86
2021/09/29 00:50:08;;;;;;;14.57;9.70;;;10.50;99.90;;;;;;4995964;28;20377;-83
2021/09/29 00:52:38;;;;;;;12.80;9.98;;;10.50;99.90;;;;;;4977324;28;20396;-81
2021/09/29 00:55:08;;;;;;;12.53;10.07;;;10.50;99.90;;;;;;4996284;28;20407;-78
2021/09/29 00:57:34;;;;;;;19.10;9.97;;;10.40;99.90;;;;;;4978800;28;20424;-81
2021/09/29 00:59:59;;;;;;;12.97;9.60;;;10.50;99.90;;;;;;4996045;28;20377;-84
2021/09/29 01:02:25;;;;;;;14.70;9.60;;;10.50;99.90;;;;;;4996855;28;20384;-82
2021/09/29 01:04:51;;;;;;;12.18;9.57;;;10.50;99.90;;;;;;4977519;28;20942;-81
2021/09/29 01:07:33;;;;;;;11.00;8.93;;;10.50;99.90;;;;;;4994060;28;20491;-82
2021/09/29 01:10:04;;;;;;;11.10;9.23;;;10.60;99.90;;;;;;4994236;28;20409;-82
2021/09/29 01:12:54;;;;;;;10.85;8.23;;;10.50;99.90;;;;;;4994577;28;20379;-82
2021/09/29 01:15:31;;;;;;;12.23;8.80;;;10.50;99.90;;;;;;4993619;28;20381;-84
2021/09/29 01:18:06;;;;;;;19.77;9.60;;;10.50;99.90;;;;;;4993870;28;20381;-85
2021/09/29 01:20:44;;;;;;;12.27;8.53;;;10.50;99.90;;;;;;4994578;28;20910;-80
2021/09/29 01:23:31;;;;;;;12.18;8.68;;;10.50;99.90;;;;;;4993199;28;20444;-87
2021/09/29 01:25:57;;;;;;;10.43;8.40;;;10.40;99.90;;;;;;4992841;28;20408;-85
2021/09/29 01:28:44;;;;;;;12.50;8.83;;;10.40;99.90;;;;;;4992918;28;21276;-81
2021/09/29 01:31:10;;;;;;;10.02;8.27;;;10.30;99.90;;;;;;4975518;28;20436;-84
2021/09/29 01:33:37;;;;;;;10.20;8.63;;;10.30;99.90;;;;;;4993222;28;20435;-88
2021/09/29 01:36:04;;;;;;;12.43;9.13;;;10.30;99.90;;;;;;4975061;28;20408;-90
2021/09/29 01:38:31;;;;;;;10.73;9.63;;;10.30;99.90;;;;;;4992807;28;20481;-84
2021/09/29 01:40:56;;;;;;;10.80;9.35;;;10.20;99.90;;;;;;4975512;28;20381;-82
2021/09/29 01:43:22;;;;;;;11.43;8.73;;;10.20;99.90;;;;;;4975471;28;20933;-81
2021/09/29 01:45:48;;;;;;;10.23;8.73;;;10.20;99.90;;;;;;4975296;28;20731;-80
2021/09/29 01:48:18;;;;;;;11.80;9.57;;;10.30;99.90;;;;;;4975178;28;20385;-84
2021/09/29 01:50:49;;;;;;;11.48;9.63;;;10.20;99.90;;;;;;4991263;28;20392;-86
2021/09/29 01:53:18;;;;;;;15.40;9.63;;;10.20;99.90;;;;;;4993676;28;20903;-82
2021/09/29 01:55:44;;;;;;;16.77;11.15;;;10.20;99.90;;;;;;4980287;28;20421;-85
2021/09/29 01:58:10;;;;;;;18.73;11.10;;;10.30;99.90;;;;;;4976725;28;20443;-83
2021/09/29 02:00:39;;;;;;;22.92;13.50;;;10.20;99.90;;;;;;4992764;28;20428;-82
2021/09/29 02:03:05;;;;;;;29.88;14.13;;;10.20;99.90;;;;;;4975435;28;20397;-83
2021/09/29 02:05:32;;;;;;;22.43;12.93;;;10.20;99.90;;;;;;4975861;28;20417;-85
2021/09/29 02:08:00;;;;;;;25.83;14.00;;;10.20;99.90;;;;;;4992108;28;20416;-86
2021/09/29 02:10:26;;;;;;;28.20;14.38;;;10.20;99.90;;;;;;4992229;28;20384;-81
2021/09/29 02:12:52;;;;;;;22.50;13.70;;;10.20;99.90;;;;;;4958608;28;20390;-81
2021/09/29 02:15:17;;;;;;;27.63;15.43;;;10.30;99.90;;;;;;4992173;28;20946;-84
2021/09/29 02:17:43;;;;;;;25.77;15.70;;;10.20;99.90;;;;;;4974606;28;20397;-80
2021/09/29 02:20:09;;;;;;;25.13;14.73;;;10.30;99.90;;;;;;4992098;28;20369;-85
2021/09/29 02:22:35;;;;;;;33.08;17.77;;;10.30;99.90;;;;;;4992029;28;20443;-86
2021/09/29 02:25:01;;;;;;;35.70;17.13;;;10.30;99.90;;;;;;4974436;28;20389;-81
2021/09/29 02:27:26;;;;;;;34.85;17.73;;;10.40;99.90;;;;;;4991301;28;20401;-83
2021/09/29 02:29:52;;;;;;;33.00;17.90;;;10.40;99.90;;;;;;4991748;28;20381;-81
2021/09/29 02:32:18;;;;;;;31.67;17.90;;;10.40;99.90;;;;;;4991960;28;20385;-83
2021/09/29 02:34:43;;;;;;;35.78;17.48;;;10.50;99.90;;;;;;4991997;28;20380;-85
2021/09/29 02:37:10;;;;;;;34.08;18.50;;;10.50;99.90;;;;;;4991523;28;20451;-87
2021/09/29 02:39:35;;;;;;;31.10;17.50;;;10.40;99.90;;;;;;4991646;28;20388;-85
2021/09/29 02:42:03;;;;;;;27.38;16.27;;;10.40;99.90;;;;;;4991615;28;20377;-88
2021/09/29 02:44:29;;;;;;;30.33;17.53;;;10.50;99.90;;;;;;4991346;28;20756;-84
2021/09/29 02:46:54;;;;;;;29.90;17.20;;;10.50;99.90;;;;;;4991074;28;20415;-84
2021/09/29 02:49:20;;;;;;;30.52;16.83;;;10.50;99.90;;;;;;4973753;28;20391;-82
2021/09/29 02:51:45;;;;;;;32.23;17.23;;;10.60;99.90;;;;;;4990653;28;20384;-89
2021/09/29 02:54:11;;;;;;;29.98;18.08;;;10.60;99.90;;;;;;4991400;28;20385;-83
2021/09/29 02:56:37;;;;;;;39.47;19.83;;;10.70;99.90;;;;;;4991569;28;20393;-81
2021/09/29 02:59:02;;;;;;;32.10;19.33;;;10.70;99.90;;;;;;4990921;28;20381;-85
2021/09/29 03:01:28;;;;;;;47.22;21.48;;;10.80;99.90;;;;;;4991678;28;20380;-79
2021/09/29 03:03:54;;;;;;;45.78;22.00;;;10.80;99.90;;;;;;4992596;28;20381;-85
2021/09/29 03:06:19;;;;;;;42.15;21.92;;;10.90;99.90;;;;;;4991557;28;20400;-89
2021/09/29 03:08:45;;;;;;;45.87;21.97;;;11.00;99.90;;;;;;4991607;28;20476;-82
2021/09/29 03:11:11;;;;;;;49.75;22.83;;;11.10;99.90;;;;;;4991777;28;20384;-83
2021/09/29 03:13:36;;;;;;;47.28;23.35;;;11.20;99.90;;;;;;4991294;28;20389;-81
2021/09/29 03:16:02;;;;;;;31.17;20.95;;;11.20;99.90;;;;;;4991255;28;20480;-85
2021/09/29 03:18:28;;;;;;;50.80;24.37;;;11.40;99.90;;;;;;4990967;28;20508;-85
2021/09/29 03:20:54;;;;;;;46.90;24.87;;;11.40;99.90;;;;;;4974103;28;20721;-85
2021/09/29 03:23:19;;;;;;;43.58;25.58;;;11.40;99.90;;;;;;4973604;28;20515;-84
2021/09/29 03:25:45;;;;;;;40.57;24.00;;;11.20;99.90;;;;;;4991452;28;20446;-86
2021/09/29 03:28:11;;;;;;;39.80;24.75;;;11.30;99.90;;;;;;4991341;28;20878;-83
2021/09/29 03:30:36;;;;;;;35.97;24.02;;;11.30;99.90;;;;;;4991093;28;20444;-89
2021/09/29 03:33:06;;;;;;;33.80;24.00;;;11.40;99.90;;;;;;4991482;28;20837;-84
2021/09/29 03:35:33;;;;;;;40.47;25.05;;;11.50;99.90;;;;;;4990957;28;20397;-85
2021/09/29 03:37:59;;;;;;;43.17;24.67;;;11.60;99.90;;;;;;4991252;28;20894;-83
2021/09/29 03:40:24;;;;;;;38.70;24.13;;;11.60;99.90;;;;;;4991164;28;20373;-81
2021/09/29 03:42:50;;;;;;;50.73;27.37;;;11.70;99.90;;;;;;4991370;28;20911;-85
2021/09/29 03:45:15;;;;;;;43.65;26.58;;;11.80;99.90;;;;;;4990290;28;20469;-85
2021/09/29 03:47:42;;;;;;;46.13;27.25;;;11.80;99.90;;;;;;4989971;28;20492;-86
2021/09/29 03:50:09;;;;;;;34.92;22.70;;;11.80;99.90;;;;;;4972655;28;20408;-83
2021/09/29 03:52:34;;;;;;;38.88;23.52;;;11.90;99.90;;;;;;4990462;28;20436;-83
2021/09/29 03:55:00;;;;;;;41.72;25.10;;;11.90;99.90;;;;;;4990505;28;20385;-84
2021/09/29 03:57:25;;;;;;;30.93;21.47;;;11.90;99.90;;;;;;4990298;28;20389;-84
2021/09/29 03:59:51;;;;;;;37.35;23.35;;;12.00;99.90;;;;;;4989986;28;20388;-84
2021/09/29 04:02:17;;;;;;;32.90;21.27;;;11.90;99.90;;;;;;4989419;28;20380;-85
2021/09/29 04:04:42;;;;;;;33.22;21.02;;;11.90;99.90;;;;;;4990977;28;20439;-83
2021/09/29 04:07:08;;;;;;;35.03;21.53;;;11.90;99.90;;;;;;4973048;28;20408;-85
2021/09/29 04:09:33;;;;;;;34.57;22.27;;;11.90;99.90;;;;;;4974179;28;20389;-82
2021/09/29 04:11:59;;;;;;;35.83;22.25;;;11.90;99.90;;;;;;4993645;28;20436;-78
2021/09/29 04:14:25;;;;;;;33.93;22.40;;;11.90;99.90;;;;;;4991923;28;20381;-86
2021/09/29 04:16:50;;;;;;;46.75;25.75;;;12.00;99.90;;;;;;4990361;28;20886;-82
2021/09/29 04:19:16;;;;;;;36.42;24.25;;;12.00;99.90;;;;;;4990782;28;20393;-81
2021/09/29 04:21:43;;;;;;;40.33;24.70;;;12.10;99.90;;;;;;4989842;28;20776;-85
2021/09/29 04:24:09;;;;;;;34.63;23.08;;;12.10;99.90;;;;;;4989927;28;20435;-81
2021/09/29 04:26:37;;;;;;;39.22;22.95;;;12.20;99.90;;;;;;4989717;28;20411;-83
2021/09/29 04:29:03;;;;;;;38.08;23.80;;;12.20;99.90;;;;;;4989688;28;20377;-77
2021/09/29 04:31:28;;;;;;;33.50;22.40;;;12.30;99.90;;;;;;4972713;28;20439;-86
2021/09/29 04:33:54;;;;;;;36.60;24.77;;;12.40;99.90;;;;;;4991537;28;20373;-87
2021/09/29 04:36:19;;;;;;;36.10;23.02;;;12.40;99.90;;;;;;4990035;28;20482;-82
2021/09/29 04:38:45;;;;;;;34.30;22.52;;;12.50;99.90;;;;;;4972749;28;20891;-83
2021/09/29 04:41:11;;;;;;;41.80;26.47;;;12.50;99.90;;;;;;4989434;28;20377;-80
2021/09/29 04:43:36;;;;;;;36.75;23.83;;;12.50;99.90;;;;;;4990338;28;20424;-81
2021/09/29 04:46:02;;;;;;;43.27;26.97;;;12.60;99.90;;;;;;4989938;28;20373;-84
2021/09/29 04:48:27;;;;;;;39.10;24.80;;;12.70;99.90;;;;;;4989998;28;20928;-85
2021/09/29 04:50:53;;;;;;;31.38;20.95;;;12.60;99.90;;;;;;4972757;28;20389;-86
2021/09/29 04:53:19;;;;;;;37.40;22.23;;;12.70;99.90;;;;;;4990140;28;20413;-82
2021/09/29 04:55:44;;;;;;;39.80;23.63;;;12.80;99.90;;;;;;4985478;28;20473;-84
2021/09/29 04:58:10;;;;;;;35.23;22.03;;;12.80;99.90;;;;;;4971338;28;20402;-83
2021/09/29 05:00:36;;;;;;;34.92;22.10;;;12.90;99.90;;;;;;4970465;28;20473;-81
2021/09/29 05:03:02;;;;;;;30.35;21.35;;;12.80;99.90;;;;;;4970306;28;20456;-80
2021/09/29 05:05:28;;;;;;;32.47;21.30;;;12.90;99.90;;;;;;4975118;28;20445;-84
2021/09/29 05:07:57;;;;;;;26.47;18.90;;;13.00;99.90;;;;;;4988735;28;20444;-85
2021/09/29 05:10:34;;;;;;;33.95;19.95;;;13.00;99.90;;;;;;4989945;28;20385;-85
2021/09/29 05:13:06;;;;;;;35.65;21.58;;;13.10;99.90;;;;;;4989807;28;20400;-82
2021/09/29 05:15:33;;;;;;;45.53;25.85;;;13.10;99.90;;;;;;4993558;28;20443;-86
2021/09/29 05:17:59;;;;;;;45.40;26.10;;;13.00;99.90;;;;;;4991900;28;20413;-88
2021/09/29 05:20:24;;;;;;;44.17;25.92;;;13.10;99.90;;;;;;4991457;28;20879;-82
2021/09/29 05:22:51;;;;;;;41.37;23.43;;;13.10;99.90;;;;;;4973158;28;20906;-86
2021/09/29 05:25:16;;;;;;;38.55;23.15;;;13.20;99.90;;;;;;4954840;28;20477;-85
2021/09/29 05:27:42;;;;;;;42.10;23.47;;;13.20;99.90;;;;;;4974692;28;20880;-83
2021/09/29 05:30:08;;;;;;;48.00;25.83;;;13.20;99.90;;;;;;4991207;28;20787;-81
2021/09/29 05:32:34;;;;;;;45.72;25.67;;;13.20;99.90;;;;;;4992242;28;20887;-87
2021/09/29 05:34:59;;;;;;;51.45;25.45;;;13.30;99.90;;;;;;4991424;28;20388;-82
2021/09/29 05:37:25;;;;;;;52.37;27.10;;;13.30;99.90;;;;;;4991677;28;20475;-87
2021/09/29 05:39:51;;;;;;;55.40;27.77;;;13.40;99.90;;;;;;4992352;28;20879;-80
2021/09/29 05:42:16;;;;;;;59.50;28.17;;;13.50;99.90;;;;;;4992836;28;20376;-84
2021/09/29 05:44:42;;;;;;;58.53;28.23;;;13.60;99.90;;;;;;4992216;28;20407;-84
2021/09/29 05:47:09;;;;;;;69.32;30.13;;;13.60;99.90;;;;;;4990873;28;20456;-82
2021/09/29 05:49:35;;;;;;;75.18;30.40;;;13.60;99.90;;;;;;4974672;28;20431;-82
2021/09/29 05:52:00;;;;;;;68.80;29.80;;;13.60;99.90;;;;;;4992116;28;20835;-90
2021/09/29 05:54:26;;;;;;;74.70;31.03;;;13.80;99.90;;;;;;4990796;28;20384;-85
2021/09/29 05:56:52;;;;;;;87.70;32.83;;;13.90;99.90;;;;;;4991874;28;20942;-82
2021/09/29 05:59:18;;;;;;;100.75;34.95;;;13.90;99.90;;;;;;4992258;28;20941;-84
2021/09/29 06:01:43;;;;;;;82.80;33.22;;;13.90;99.90;;;;;;4992172;28;20735;-85
2021/09/29 06:04:11;;;;;;;97.77;34.03;;;13.90;99.90;;;;;;4991756;28;20435;-84
2021/09/29 06:06:37;;;;;;;107.10;36.33;;;14.00;99.90;;;;;;4992044;28;20408;-82
2021/09/29 06:09:03;;;;;;;104.65;36.45;;;14.00;99.90;;;;;;4990469;28;20392;-90
2021/09/29 06:11:28;;;;;;;100.87;35.87;;;14.00;99.90;;;;;;4992194;28;20396;-89
2021/09/29 06:14:00;;;;;;;69.60;31.17;;;14.10;99.90;;;;;;4991210;28;20376;-82
2021/09/29 06:16:25;;;;;;;102.63;34.70;;;14.20;99.90;;;;;;4985342;28;20482;-82
2021/09/29 06:18:51;;;;;;;121.55;38.30;;;14.30;99.90;;;;;;4970624;28;20411;-86
2021/09/29 06:21:18;;;;;;;113.75;38.13;;;14.30;99.90;;;;;;4988929;28;20381;-85
2021/09/29 06:23:43;;;;;;;108.50;36.33;;;14.30;99.90;;;;;;4988793;28;20438;-85
2021/09/29 06:26:09;;;;;;;119.50;37.30;;;14.30;99.90;;;;;;4994280;28;20389;-85
2021/09/29 06:28:37;;;;;;;92.00;34.97;;;14.40;99.90;;;;;;4988385;28;20775;-85
2021/09/29 06:31:04;;;;;;;93.20;35.13;;;14.50;99.90;;;;;;4989542;28;20388;-80
2021/09/29 06:33:30;;;;;;;90.10;35.00;;;14.60;99.90;;;;;;4990103;28;20431;-79
2021/09/29 06:35:56;;;;;;;97.10;35.43;;;14.60;99.90;;;;;;4990149;28;20412;-80
2021/09/29 06:38:21;;;;;;;88.45;35.22;;;14.70;99.90;;;;;;4988246;28;20773;-82
2021/09/29 06:40:50;;;;;;;82.87;33.57;;;14.80;99.90;;;;;;4986968;28;20388;-85
2021/09/29 06:43:16;;;;;;;103.53;36.47;;;14.90;99.90;;;;;;4993984;28;20863;-84
2021/09/29 06:45:42;;;;;;;102.03;36.83;;;15.00;99.90;;;;;;4969356;28;20381;-79
2021/09/29 06:48:10;;;;;;;82.18;32.65;;;14.80;99.90;;;;;;4987249;28;20454;-85
2021/09/29 06:50:36;;;;;;;103.53;38.90;;;14.90;99.90;;;;;;4988104;28;20385;-82
2021/09/29 06:53:02;;;;;;;91.95;37.10;;;14.90;99.90;;;;;;4986058;28;20400;-83
2021/09/29 06:55:28;;;;;;;107.43;37.78;;;14.90;99.90;;;;;;4989150;28;20442;-83
2021/09/29 06:57:54;;;;;;;98.95;36.85;;;15.00;99.90;;;;;;4993239;28;20389;-81
2021/09/29 07:00:21;;;;;;;94.03;35.80;;;15.00;99.90;;;;;;4988106;28;20412;-78
2021/09/29 07:02:47;;;;;;;90.28;35.72;;;15.00;99.90;;;;;;4970577;28;20408;-84
2021/09/29 07:05:14;;;;;;;89.97;36.72;;;15.10;99.90;;;;;;4971351;28;20408;-81
2021/09/29 07:07:41;;;;;;;91.82;38.22;;;15.20;99.90;;;;;;4989436;28;20401;-83
2021/09/29 07:10:08;;;;;;;83.20;34.90;;;15.00;99.90;;;;;;4987208;28;20397;-84
2021/09/29 07:12:38;;;;;;;78.83;34.10;;;15.10;99.90;;;;;;4988620;28;20534;-83
2021/09/29 07:15:06;;;;;;;83.80;34.57;;;15.20;99.90;;;;;;4970805;28;20388;-82
2021/09/29 07:17:32;;;;;;;80.53;36.45;;;15.30;99.90;;;;;;4972999;28;20421;-83
2021/09/29 07:19:58;;;;;;;85.30;34.85;;;15.40;99.90;;;;;;4986074;28;20423;-81
2021/09/29 07:22:25;;;;;;;87.93;36.10;;;15.40;99.90;;;;;;4996537;28;20400;-79
2021/09/29 07:24:53;;;;;;;87.65;36.85;;;15.50;99.90;;;;;;4988657;28;20638;-80
2021/09/29 07:27:19;;;;;;;71.30;32.92;;;15.50;99.90;;;;;;4987727;28;20543;-88
2021/09/29 07:29:45;;;;;;;64.53;30.73;;;15.60;99.90;;;;;;4969182;28;20493;-88
2021/09/29 07:32:11;;;;;;;77.10;34.20;;;15.70;99.90;;;;;;4987105;28;20389;-82
2021/09/29 07:34:36;;;;;;;72.25;33.58;;;15.70;99.90;;;;;;4987123;28;20796;-81
2021/09/29 07:37:02;;;;;;;71.10;33.10;;;15.70;99.90;;;;;;4986655;28;20389;-80
2021/09/29 07:39:28;;;;;;;73.43;34.10;;;15.70;99.90;;;;;;4987617;28;20779;-86
2021/09/29 07:41:55;;;;;;;76.55;33.83;;;15.60;99.90;;;;;;4977864;28;20770;-81
2021/09/29 07:44:21;;;;;;;80.73;35.17;;;15.70;99.90;;;;;;4966097;28;20397;-81
2021/09/29 07:46:47;;;;;;;92.35;39.72;;;15.70;99.90;;;;;;4980537;28;20416;-84
2021/09/29 07:49:15;;;;;;;84.07;37.05;;;15.60;99.90;;;;;;4983801;28;20397;-86
2021/09/29 07:51:41;;;;;;;77.25;37.28;;;15.60;99.90;;;;;;4985067;28;20763;-80
2021/09/29 07:54:07;;;;;;;81.38;36.33;;;15.70;99.90;;;;;;4969779;28;20396;-83
2021/09/29 07:56:33;;;;;;;83.68;38.47;;;15.70;99.90;;;;;;4986684;28;20882;-86
2021/09/29 07:58:59;;;;;;;81.00;38.25;;;15.70;99.90;;;;;;4984711;28;20399;-81
2021/09/29 08:01:25;;;;;;;80.03;36.35;;;15.70;99.90;;;;;;4984840;28;20723;-83
2021/09/29 08:03:51;;;;;;;79.30;38.57;;;15.70;99.90;;;;;;4992089;28;20492;-83
2021/09/29 08:06:16;;;;;;;78.07;37.40;;;15.70;99.90;;;;;;4967422;28;20401;-81
2021/09/29 08:08:42;;;;;;;75.88;36.70;;;15.60;99.90;;;;;;4992032;28;20397;-82
2021/09/29 08:11:08;;;;;;;82.03;38.38;;;15.70;99.90;;;;;;4984410;28;20373;-88
2021/09/29 08:13:34;;;;;;;82.38;38.67;;;15.60;99.90;;;;;;4985101;28;20728;-84
2021/09/29 08:16:02;;;;;;;100.95;42.40;;;15.60;99.90;;;;;;4967636;28;20395;-83
2021/09/29 08:18:28;;;;;;;103.30;41.83;;;15.60;99.90;;;;;;4966173;28;20416;-87
2021/09/29 08:20:55;;;;;;;138.07;45.20;;;15.50;99.90;;;;;;4984894;28;20377;-83
2021/09/29 08:23:34;;;;;;;99.53;40.80;;;15.50;99.90;;;;;;4968009;28;20891;-80
2021/09/29 08:29:17;;;;;;;98.28;41.97;;;15.40;99.90;;;;;;4984494;28;20423;-85
2021/09/29 08:31:37;;;;;;;81.32;38.17;;;15.40;99.90;;;;;;4984137;28;20507;-81
2021/09/29 08:34:12;;;;;;;86.85;39.83;;;15.40;99.90;;;;;;4967719;28;20451;-80
2021/09/29 08:39:57;;;;;;;81.50;39.28;;;15.30;99.90;;;;;;4914459;29;20397;-85
2021/09/29 08:45:26;;;;;;;86.68;38.58;;;15.40;99.90;;;;;;4985252;28;20535;-78
2021/09/29 08:53:53;;;;;;;65.72;33.95;;;15.70;99.90;;;;;;4988489;28;20392;-82
2021/09/29 09:17:39;;;;;;;80.75;39.08;;;16.00;99.90;;;;;;4987231;28;20419;-78
2021/09/29 09:20:24;;;;;;;83.00;39.72;;;16.10;99.90;;;;;;4988838;28;20396;-82
2021/09/29 09:22:52;;;;;;;84.97;38.15;;;16.00;99.90;;;;;;4989311;28;20455;-85
2021/09/29 09:25:39;;;;;;;67.03;36.70;;;16.00;99.90;;;;;;4989095;28;20388;-83
2021/09/29 09:28:14;;;;;;;70.07;33.67;;;16.00;99.90;;;;;;4987180;28;20433;-83
2021/09/29 09:30:40;;;;;;;54.30;32.45;;;16.10;99.90;;;;;;4971727;28;20449;-83
2021/09/29 09:33:07;;;;;;;70.72;36.90;;;16.10;99.90;;;;;;4991100;28;20490;-85
2021/09/29 09:35:47;;;;;;;74.47;35.80;;;16.00;99.90;;;;;;4987430;28;21089;-80
2021/09/29 09:38:19;;;;;;;59.13;31.63;;;16.00;99.90;;;;;;4988881;28;20399;-83
2021/09/29 09:40:45;;;;;;;62.70;32.40;;;16.00;99.90;;;;;;4989312;28;21232;-84
2021/09/29 09:43:14;;;;;;;64.55;31.85;;;16.00;99.90;;;;;;4989753;28;20383;-79
2021/09/29 09:45:48;;;;;;;72.13;28.85;;;16.10;99.90;;;;;;4971164;28;20409;-83
2021/09/29 09:48:22;;;;;;;48.45;26.92;;;16.10;99.90;;;;;;4987864;28;20439;-82
2021/09/29 09:50:55;;;;;;;51.65;28.58;;;16.10;99.90;;;;;;4971677;28;20460;-81
2021/09/29 09:53:21;;;;;;;45.72;25.33;;;16.10;99.90;;;;;;4996708;28;20930;-85
2021/09/29 09:55:47;;;;;;;37.67;22.83;;;16.10;99.90;;;;;;4989673;28;20391;-84
2021/09/29 09:58:12;;;;;;;35.13;21.33;;;16.10;99.90;;;;;;4989876;28;20393;-87
2021/09/29 10:00:38;;;;;;;40.73;22.87;;;16.20;99.90;;;;;;4987958;28;20477;-86
2021/09/29 10:03:04;;;;;;;33.70;21.65;;;16.20;99.90;;;;;;4991858;28;20489;-78
2021/09/29 10:05:30;;;;;;;46.38;22.65;;;16.20;99.90;;;;;;4994920;28;20472;-83
2021/09/29 10:07:57;;;;;;;35.78;21.52;;;16.20;99.90;;;;;;4974658;28;20413;-84
2021/09/29 10:24:10;;;;;;;26.33;15.05;;;16.60;99.90;;;;;;4988385;28;20400;-78
2021/09/29 10:26:36;;;;;;;20.42;13.60;;;16.70;99.90;;;;;;4988603;28;20901;-84
2021/09/29 10:29:04;;;;;;;15.83;12.33;;;16.80;99.90;;;;;;4987862;28;20389;-79
2021/09/29 10:34:03;;;;;;;14.27;11.88;;;16.80;99.90;;;;;;4991149;28;20399;-80
2021/09/29 10:36:43;;;;;;;18.70;12.65;;;16.90;99.90;;;;;;4975850;28;20407;-78
2021/09/29 10:44:29;;;;;;;16.80;11.75;;;16.80;99.90;;;;;;4987063;28;20381;-83
2021/09/29 10:47:11;;;;;;;15.30;11.48;;;16.80;99.90;;;;;;4969262;28;20800;-80
2021/09/29 11:28:07;;;;;;;16.75;13.45;;;16.60;99.90;;;;;;4986685;28;20431;-79
2021/09/29 11:30:48;;;;;;;16.67;13.63;;;16.60;99.90;;;;;;4984978;28;20381;-79
2021/09/29 11:33:37;;;;;;;18.10;13.57;;;16.70;99.90;;;;;;4968822;28;20479;-82
2021/09/29 12:09:08;;;;;;;23.60;19.52;;;17.50;99.90;;;;;;4986727;28;20387;-78
2021/09/29 12:11:53;;;;;;;23.23;19.23;;;17.40;99.90;;;;;;4985859;28;20404;-84
2021/09/29 12:14:20;;;;;;;21.60;18.42;;;17.50;99.90;;;;;;4985141;28;20448;-82
2021/09/29 12:16:49;;;;;;;21.92;19.50;;;17.70;99.90;;;;;;4985558;28;20459;-79
2021/09/29 12:19:22;;;;;;;23.88;20.83;;;17.70;99.90;;;;;;4969628;28;20444;-81
2021/09/29 12:21:53;;;;;;;23.73;21.10;;;17.70;99.90;;;;;;4983051;28;20409;-81
2021/09/29 12:24:29;;;;;;;24.50;21.33;;;17.70;99.90;;;;;;4984931;28;20396;-83
2021/09/29 12:26:58;;;;;;;27.95;22.63;;;17.60;99.90;;;;;;4985619;28;21006;-81
2021/09/29 12:35:18;;;;;;;37.03;24.20;;;17.30;99.90;;;;;;4986561;28;20855;-81
2021/09/29 12:37:35;;;;;;;28.63;25.48;;;17.20;99.90;;;;;;4985224;28;20397;-83
2021/09/29 12:40:02;;;;;;;27.67;23.65;;;17.40;99.90;;;;;;4985887;28;20385;-81
2021/09/29 12:42:32;;;;;;;24.92;22.25;;;17.60;99.90;;;;;;4985031;28;20395;-78
2021/09/29 12:44:59;;;;;;;33.90;25.17;;;17.70;99.90;;;;;;4985148;28;20389;-80
2021/09/29 12:47:36;;;;;;;29.50;24.40;;;17.60;99.90;;;;;;4984648;28;20910;-82
2021/09/29 12:50:10;;;;;;;26.52;23.77;;;17.60;99.90;;;;;;4969525;28;20954;-83
2021/09/29 12:52:38;;;;;;;27.85;24.15;;;17.60;99.90;;;;;;4968043;28;20452;-80
2021/09/29 12:55:05;;;;;;;28.15;23.85;;;17.70;99.90;;;;;;4984955;28;20443;-79
2021/09/29 12:57:30;;;;;;;28.98;25.17;;;17.80;99.90;;;;;;4985833;28;20467;-79
2021/09/29 12:59:57;;;;;;;29.52;25.77;;;17.70;99.90;;;;;;4986517;28;20836;-79
2021/09/29 13:02:24;;;;;;;29.55;25.27;;;17.40;99.90;;;;;;4986236;28;20400;-81
2021/09/29 13:04:50;;;;;;;28.92;25.90;;;17.50;99.90;;;;;;4980177;28;20388;-80
2021/09/29 13:07:16;;;;;;;30.23;26.95;;;17.60;99.90;;;;;;4966123;28;20416;-82
2021/09/29 13:09:41;;;;;;;27.58;24.67;;;17.50;99.90;;;;;;4984160;28;20716;-82
2021/09/29 13:12:07;;;;;;;30.20;26.07;;;17.70;99.90;;;;;;4983917;28;20383;-78
2021/09/29 13:14:33;;;;;;;37.63;25.48;;;17.70;99.90;;;;;;4984836;28;20401;-79
2021/09/29 13:16:58;;;;;;;30.30;26.10;;;17.70;99.90;;;;;;4965694;28;20864;-79
2021/09/29 13:19:31;;;;;;;34.28;26.23;;;17.70;99.90;;;;;;4984878;28;20384;-80
2021/09/29 13:22:04;;;;;;;29.13;26.13;;;17.70;99.90;;;;;;4991316;28;20396;-77
2021/09/29 13:24:56;;;;;;;30.17;25.17;;;17.60;99.90;;;;;;4983861;28;20876;-83
2021/09/29 13:36:33;;;;;;;27.98;24.92;;;18.10;99.90;;;;;;4986196;28;20379;-79
2021/09/29 13:38:03;;;;;;;29.08;26.08;;;18.20;99.90;;;;;;4988373;28;20381;-80
2021/09/29 13:40:29;;;;;;;31.90;25.40;;;18.30;99.90;;;;;;4988684;28;20381;-84
2021/09/29 13:42:55;;;;;;;33.50;26.53;;;18.30;99.90;;;;;;4970454;28;20942;-79
2021/09/29 13:45:21;;;;;;;28.75;25.75;;;18.30;99.90;;;;;;4988205;28;20407;-78
2021/09/29 13:47:46;;;;;;;28.53;25.60;;;18.40;99.90;;;;;;4988159;28;20492;-78
2021/09/29 13:50:14;;;;;;;29.63;25.93;;;18.40;99.90;;;;;;4990367;28;20420;-80
2021/09/29 13:52:39;;;;;;;29.10;25.70;;;18.40;99.90;;;;;;4973782;28;20505;-79
2021/09/29 13:55:11;;;;;;;26.98;24.17;;;18.60;99.90;;;;;;4991285;28;20503;-81
2021/09/29 13:57:42;;;;;;;29.70;23.77;;;18.70;99.90;;;;;;4989216;28;20582;-78
2021/09/29 14:00:23;;;;;;;26.70;23.90;;;19.00;99.90;;;;;;4988296;28;20398;-81
2021/09/29 14:32:27;;;;;;;27.85;23.75;;;19.20;99.90;;;;;;4990055;28;20855;-79
2021/09/29 14:34:53;;;;;;;25.23;22.40;;;19.10;99.90;;;;;;4975373;28;20395;-79
2021/09/29 14:37:19;;;;;;;34.25;23.65;;;18.90;99.90;;;;;;4989604;28;20510;-80
2021/09/29 14:39:45;;;;;;;31.15;23.80;;;18.80;99.90;;;;;;4985132;28;20417;-83
2021/09/29 14:42:12;;;;;;;29.50;22.40;;;18.60;99.90;;;;;;4959602;28;20487;-80
2021/09/29 14:44:38;;;;;;;31.52;24.00;;;18.50;99.90;;;;;;4977656;28;20478;-81
2021/09/29 14:47:11;;;;;;;28.60;23.45;;;18.50;99.90;;;;;;4974049;28;20408;-80
2021/09/29 14:49:41;;;;;;;28.43;22.43;;;18.40;99.90;;;;;;4963272;28;20402;-78
2021/09/29 14:52:08;;;;;;;29.08;23.52;;;18.30;99.90;;;;;;4974904;28;20392;-80
2021/09/29 14:54:34;;;;;;;27.47;22.93;;;18.20;99.90;;;;;;4974556;28;20433;-84
2021/09/29 14:57:00;;;;;;;31.50;23.70;;;18.20;99.90;;;;;;4989922;28;20446;-79
2021/09/29 14:59:26;;;;;;;26.10;22.40;;;18.10;99.90;;;;;;4988419;28;20456;-78
2021/09/29 15:01:52;;;;;;;32.85;22.70;;;18.00;99.90;;;;;;4988511;28;20879;-86
2021/09/29 15:04:17;;;;;;;30.17;23.27;;;18.00;99.90;;;;;;4971208;28;20472;-79
2021/09/29 15:06:43;;;;;;;33.08;22.73;;;18.00;99.90;;;;;;4989655;28;20415;-78
2021/09/29 15:09:08;;;;;;;30.67;21.93;;;17.90;99.90;;;;;;4989764;28;20759;-81
2021/09/29 15:11:34;;;;;;;27.00;21.45;;;17.80;99.90;;;;;;4990047;28;20383;-76
2021/09/29 15:14:15;;;;;;;26.23;22.00;;;17.80;99.90;;;;;;4990070;28;20389;-82
2021/09/29 15:19:25;;;;;;;24.38;20.90;;;17.40;99.90;;;;;;4989484;28;20958;-82
2021/09/29 15:22:13;;;;;;;26.27;22.17;;;17.50;99.90;;;;;;4971797;28;20445;-81
2021/09/29 15:24:48;;;;;;;41.88;23.15;;;17.40;99.90;;;;;;4953250;28;20390;-78
2021/09/29 15:48:41;;;;;;;24.33;19.85;;;17.10;99.90;;;;;;4970655;28;21000;-80